aviador You're here:

KAKR Decoded Metar

AKRON in OH, USA
Report Time2017-06-25 18:54:00
UTC Time2017-06-25 19:06:09
Flight Rules vfr VFR
Wind270° at 23 Gusting to 32 kt
W.Decomp.*RWY 25: 20.5 kt HW 10.4 kt RCW
RWY 19: 1.2 kt HW 23.0 kt RCW
W.Rank270° ranks 10
Current wind is above 270° avg. (9.8)
Visibility9999 m
Phenomena:N/A
Clouds:Few 070 Hf
Expected CloudBase > 7,600 ft AGL from Temp-Dew spread
CeilingNone
Temp25°C (ISA +12)
Dew Point06°C (30% RH)
AAT15.8°C
QNH1017 hPa
Density Alt2,615 ft
Elevation1,191 ft
Report Wrong Elevation
Raw Report
KAKR 251854Z AUTO 27023G32KT 10SM FEW070 25/06 A3004 RMK AO2 PK
WND 25035/1813 SLP166 T02500061 TSNO=

Extra information for KAKR:More info

Metar Taf Metar & Taf Last 4 Metars F.Rules Stats Wind Profile Meteogram Temp Stats Airport Information Weather charts Add Link Nearby VenuesMetar ALERT Operation Metar Decoded Social comments

AIRNAV info for KAKR